Terminal Aerodrome Forecast
Issued by NWS

Home | Current Version | Previous Version | Text Only | Print | Product List | Glossary Off
Versions: 1 2 3 4 5 6 7 8 9 10 11 12 13

000
FTUS43 KICT 270900 AAA
TAFHUT
TAF AMD
KHUT 270924Z 2709/2806 03014KT P6SM VCTS SCT060CB BKN100
      TEMPO 2709/2712 5SM -TSRA BR BKN035CB
     FM271200 02010KT P6SM BKN120
     FM280100 02010KT P6SM BKN120=

USA.gov is the U.S. government's official web portal to all federal, state and local government web resources and services.